Terminal Aerodrome Forecast
Issued by NWS King Salmon, AK

Home | Current Version | Previous Version | Text Only | Print | Product List | Glossary On
Versions: 1 2 3 4 5 6 7 8 9 10 11 12 13 14 15 16 17 18 19 20 21 22 23 24 25 26 27 28 29 30 31 32
000
FTAK31 PANC 281120
TAFAKN
TAF
PAKN 281120Z 2812/2912 19008KT 3SM BR SCT002 BKN250
      TEMPO 2812/2816 1SM BR OVC002
     FM281800 20012KT P6SM BKN015 OVC050
     FM290000 22014KT P6SM -SHRA OVC015
     FM290900 VRB05KT P6SM VCSH SCT015 BKN025=

USA.gov is the U.S. government's official web portal to all federal, state and local government web resources and services.